Time;durP1;ratioP1;P1;durP2;ratioP2;P2;SDS_P1;SDS_P2;PMS_P1;PMS_P2;Temp;Humidity;BMP_temperature;BMP_pressure;BME280_temperature;BME280_humidity;BME280_pressure;Samples;Min_cycle;Max_cycle;Signal;HPM_P1;HPM_P2
2021/12/22 00:00:23;;;;;;;;;;;-3.10;99.90;;;-4.08;100.00;101508.84;4969119;28;19930;-77
2021/12/22 00:02:50;;;;;;;;;;;-1.60;99.90;;;-4.29;100.00;101512.00;4952550;28;19926;-77
2021/12/22 00:05:19;;;;;;;;;;;-3.20;99.90;;;-4.30;100.00;101512.78;4969002;28;19934;-77
2021/12/22 00:07:46;;;;;;;;;;;-3.10;99.90;;;-4.20;100.00;101503.03;4969600;28;19926;-77
2021/12/22 00:10:14;;;;;;;;;;;-3.30;99.90;;;-4.24;100.00;101513.94;4969268;28;19930;-77
2021/12/22 00:12:41;;;;;;;;;;;-3.20;99.90;;;-4.41;100.00;101512.19;4968903;28;19985;-78
2021/12/22 00:15:08;;;;;;;;;;;-3.30;99.90;;;-4.50;100.00;101505.66;4972901;28;19966;-78
2021/12/22 00:17:35;;;;;;;;;;;-3.10;99.90;;;-4.44;100.00;101512.03;4985776;28;20008;-78
2021/12/22 00:20:04;;;;;;;;;;;-3.30;99.90;;;-4.49;100.00;101508.34;4970510;28;19937;-78
2021/12/22 00:22:32;;;;;;;;;;;-4.30;99.90;;;-4.52;100.00;101503.03;4968224;28;19926;-78
2021/12/22 00:24:59;;;;;;;;;;;-3.40;99.90;;;-4.60;100.00;101505.16;4984976;28;19934;-77
2021/12/22 00:27:25;;;;;;;;;;;-3.40;99.90;;;-4.67;100.00;101512.44;4951338;28;19930;-78
2021/12/22 00:29:53;;;;;;;;;;;-3.40;99.90;;;-4.76;100.00;101512.78;4951883;28;19930;-78
2021/12/22 00:32:20;;;;;;;;;;;-3.20;99.90;;;-4.90;100.00;101502.63;4965994;28;20335;-78
2021/12/22 00:34:52;;;;;;;;;;;-3.40;99.90;;;-4.92;100.00;101511.91;4951072;28;19934;-79
2021/12/22 00:37:21;;;;;;;;;;;-3.30;99.90;;;-4.99;100.00;101504.66;4951632;28;19930;-77
2021/12/22 00:39:50;;;;;;;;;;;-3.70;99.90;;;-4.90;100.00;101510.34;4950971;28;19930;-78
2021/12/22 00:42:18;;;;;;;;;;;-3.50;99.90;;;-4.79;100.00;101502.34;4950497;28;19985;-78
2021/12/22 00:44:49;;;;;;;;;;;-3.60;99.90;;;-4.93;100.00;101502.44;4935209;28;19926;-78
2021/12/22 00:47:27;;;;;;;;;;;-3.60;99.90;;;-4.86;100.00;101507.13;4951319;28;19964;-78
2021/12/22 00:49:55;;;;;;;;;;;-3.60;99.90;;;-4.99;100.00;101504.66;4951093;28;19979;-78
2021/12/22 00:52:23;;;;;;;;;;;-3.80;99.90;;;-5.04;100.00;101491.53;4950324;28;20017;-78
2021/12/22 00:54:50;;;;;;;;;;;-3.70;99.90;;;-4.93;100.00;101496.41;4934389;28;20161;-78
2021/12/22 00:57:17;;;;;;;;;;;-3.80;99.90;;;-4.80;100.00;101491.19;4951269;28;19934;-78
2021/12/22 00:59:46;;;;;;;;;;;-3.80;99.90;;;-5.00;100.00;101501.19;4952515;28;19934;-78
2021/12/22 01:02:16;;;;;;;;;;;-3.70;99.90;;;-5.24;100.00;101494.66;4984413;28;20388;-78
2021/12/22 01:04:44;;;;;;;;;;;-4.00;99.90;;;-5.17;100.00;101499.31;4968412;28;19959;-77
2021/12/22 01:07:14;;;;;;;;;;;-3.90;99.90;;;-5.34;100.00;101499.22;4984619;28;19934;-78
2021/12/22 01:09:44;;;;;;;;;;;-4.10;99.90;;;-5.32;100.00;101500.19;4952705;28;20012;-77
2021/12/22 01:12:11;;;;;;;;;;;-4.10;99.90;;;-5.06;100.00;101485.44;4968392;28;19926;-79
2021/12/22 01:14:39;;;;;;;;;;;-4.00;99.90;;;-5.14;100.00;101489.25;4967468;28;20703;-77
2021/12/22 01:17:12;;;;;;;;;;;-3.60;99.90;;;-5.17;100.00;101489.97;4984102;28;20291;-77
2021/12/22 01:22:47;;;;;;;;;;;-4.10;99.90;;;-5.25;100.00;101487.75;4967711;28;19937;-78
2021/12/22 01:25:22;;;;;;;;;;;-4.10;99.90;;;-5.32;100.00;101492.50;4955826;28;19930;-78
2021/12/22 01:27:49;;;;;;;;;;;-4.10;99.90;;;-5.38;100.00;101501.53;4969145;28;19930;-77
2021/12/22 01:30:23;;;;;;;;;;;-4.10;99.90;;;-5.48;100.00;101512.91;4968205;28;19926;-77
2021/12/22 01:32:54;;;;;;;;;;;-4.20;99.90;;;-5.43;100.00;101519.22;4967378;28;20562;-78
2021/12/22 01:35:24;;;;;;;;;;;-4.10;99.90;;;-5.32;100.00;101532.69;4968171;28;20403;-78
2021/12/22 01:37:51;;;;;;;;;;;-4.20;99.90;;;-5.41;100.00;101530.47;4968190;28;20033;-78
2021/12/22 01:40:19;;;;;;;;;;;-4.40;99.90;;;-5.56;100.00;101535.53;4969409;28;19930;-77
2021/12/22 01:43:05;;;;;;;;;;;-4.20;99.90;;;-5.60;100.00;101542.19;4967340;28;19965;-78
2021/12/22 01:46:20;;;;;;;;;;;-4.20;99.90;;;-5.67;100.00;101542.56;4981724;28;20072;-78
2021/12/22 01:49:11;;;;;;;;;;;-4.30;99.90;;;-5.65;100.00;101545.25;4967917;28;19930;-78
2021/12/22 01:51:38;;;;;;;;;;;-4.60;99.90;;;-5.78;100.00;101544.50;4968158;28;19930;-78
2021/12/22 01:54:28;;;;;;;;;;;-4.40;99.90;;;-5.71;100.00;101551.75;4966800;28;19938;-77
2021/12/22 01:57:02;;;;;;;;;;;-4.50;99.90;;;-5.81;100.00;101551.09;4970817;28;20454;-77
2021/12/22 01:59:29;;;;;;;;;;;-4.50;99.90;;;-5.77;100.00;101551.38;4967885;28;20402;-78
2021/12/22 02:02:00;;;;;;;;;;;-4.50;99.90;;;-5.73;100.00;101557.59;4952536;28;19932;-79
2021/12/22 02:04:31;;;;;;;;;;;-4.60;99.90;;;-5.73;100.00;101557.59;4982735;28;19973;-78
2021/12/22 02:06:58;;;;;;;;;;;-4.50;99.90;;;-5.86;100.00;101561.97;4969759;28;20021;-77
2021/12/22 02:12:01;;;;;;;;;;;-4.70;99.90;;;-5.90;100.00;101565.13;4972730;28;20319;-77
2021/12/22 02:14:29;;;;;;;;;;;-4.80;99.90;;;-5.96;100.00;101553.63;4970216;28;19933;-78
2021/12/22 02:16:55;;;;;;;;;;;-4.80;99.90;;;-5.99;100.00;101555.19;4955214;28;19930;-78
2021/12/22 02:19:22;;;;;;;;;;;-4.70;99.90;;;-6.05;100.00;101559.94;4971011;28;19930;-79
2021/12/22 02:21:54;;;;;;;;;;;-4.80;99.90;;;-5.91;100.00;101565.03;4955223;28;19930;-78
2021/12/22 02:24:22;;;;;;;;;;;;;;;-5.91;100.00;101567.59;4970238;28;19932;-78
2021/12/22 02:26:56;;;;;;;;;;;-4.90;99.90;;;-5.94;100.00;101559.72;4972303;28;19930;-78
2021/12/22 02:29:34;;;;;;;;;;;-4.90;99.90;;;-5.98;100.00;101569.78;4940452;28;20557;-78
2021/12/22 02:32:07;;;;;;;;;;;-4.80;99.90;;;-6.02;100.00;101562.69;4972172;28;19930;-78
2021/12/22 02:34:41;;;;;;;;;;;-4.90;99.90;;;-6.15;100.00;101550.81;4971060;28;19930;-78
2021/12/22 02:37:15;;;;;;;;;;;-4.90;99.90;;;-6.14;100.00;101544.03;4972315;28;20295;-78
2021/12/22 02:39:53;;;;;;;;;;;;;;;-6.04;100.00;101537.78;4972394;28;19930;-78
2021/12/22 02:42:38;;;;;;;;;;;-4.50;99.90;;;-6.02;100.00;101538.78;4970154;28;20591;-78
2021/12/22 02:45:07;;;;;;;;;;;-4.80;99.90;;;-6.06;100.00;101542.81;4971808;28;19926;-77
2021/12/22 02:47:34;;;;;;;;;;;-4.90;99.90;;;-5.99;100.00;101550.06;4970833;28;19929;-78
2021/12/22 02:50:03;;;;;;;;;;;-4.80;99.90;;;-6.03;100.00;101550.69;4986821;28;19930;-78
2021/12/22 02:52:37;;;;;;;;;;;-4.90;99.90;;;-5.96;100.00;101553.63;4953737;28;19938;-77
2021/12/22 02:55:05;;;;;;;;;;;-2.30;99.90;;;-6.08;100.00;101557.22;4970441;28;19930;-77
2021/12/22 02:57:48;;;;;;;;;;;-5.00;99.90;;;-6.23;100.00;101551.13;4954491;28;19930;-77
2021/12/22 03:05:24;;;;;;;;;;;-5.10;99.90;;;-6.14;100.00;101544.03;4971462;28;20459;-78
2021/12/22 03:07:55;;;;;;;;;;;-4.90;99.90;;;-6.07;100.00;101542.72;4970618;28;19941;-78
2021/12/22 03:10:22;;;;;;;;;;;-5.00;99.90;;;-6.05;100.00;101542.00;4970577;28;19937;-78
2021/12/22 03:13:10;;;;;;;;;;;-5.00;99.90;;;-6.01;100.00;101537.97;4972083;28;20526;-78
2021/12/22 03:15:37;;;;;;;;;;;-3.70;99.90;;;-6.05;100.00;101541.16;4970973;28;19938;-77
2021/12/22 03:18:06;;;;;;;;;;;-4.80;99.90;;;-6.22;100.00;101532.38;4970255;28;20404;-78
2021/12/22 03:20:33;;;;;;;;;;;-4.90;99.90;;;-6.10;100.00;101540.84;4970640;28;19937;-77
2021/12/22 03:23:00;;;;;;;;;;;-4.80;99.90;;;-6.15;100.00;101543.13;4969719;28;20387;-78
2021/12/22 03:25:27;;;;;;;;;;;-5.10;99.90;;;-6.17;100.00;101538.69;4969975;28;19937;-79
2021/12/22 03:28:02;;;;;;;;;;;-5.10;99.90;;;-6.36;100.00;101540.06;4970390;28;19980;-77
2021/12/22 03:30:29;;;;;;;;;;;-4.50;99.90;;;-6.46;100.00;101535.19;4955149;28;19930;-78
2021/12/22 03:32:56;;;;;;;;;;;-5.20;99.90;;;-6.32;100.00;101534.38;4969529;28;19926;-76
2021/12/22 03:35:23;;;;;;;;;;;-4.70;99.90;;;-6.39;100.00;101526.22;4953527;28;19930;-79
2021/12/22 03:37:56;;;;;;;;;;;-5.00;99.90;;;-6.42;100.00;101524.34;4953805;28;19937;-77
2021/12/22 03:40:24;;;;;;;;;;;;;;;-6.45;100.00;101530.13;4971598;28;19974;-79
2021/12/22 03:42:55;;;;;;;;;;;;;;;-6.52;100.00;101517.75;4970321;28;20023;-77
2021/12/22 03:45:22;;;;;;;;;;;-5.30;99.90;;;-6.42;100.00;101514.97;4970856;28;19933;-78
2021/12/22 03:47:49;;;;;;;;;;;-5.30;99.90;;;-6.29;100.00;101526.88;4970576;28;20385;-79
2021/12/22 03:50:17;;;;;;;;;;;-5.40;99.90;;;-6.34;100.00;101527.38;4955420;28;20297;-79
2021/12/22 03:52:45;;;;;;;;;;;-5.20;99.90;;;-6.36;100.00;101518.72;4970569;28;19930;-78
2021/12/22 03:55:12;;;;;;;;;;;-5.30;99.90;;;-6.35;100.00;101513.66;4962761;28;19930;-79
2021/12/22 03:57:39;;;;;;;;;;;-5.30;99.90;;;-6.29;100.00;101513.19;4952341;28;19984;-79
2021/12/22 04:00:11;;;;;;;;;;;-5.20;99.90;;;-6.27;100.00;101516.72;4952153;28;19926;-79
2021/12/22 04:02:39;;;;;;;;;;;-5.10;99.90;;;-6.23;100.00;101508.47;4951146;29;19941;-79
2021/12/22 04:05:07;;;;;;;;;;;-5.20;99.90;;;-6.13;100.00;101505.66;4951996;29;20091;-80
2021/12/22 04:07:34;;;;;;;;;;;-5.10;99.90;;;-6.01;100.00;101496.97;4951372;29;20486;-79
2021/12/22 04:10:09;;;;;;;;;;;-4.90;99.90;;;-5.88;100.00;101506.25;4951280;28;19931;-78
2021/12/22 04:12:35;;;;;;;;;;;-4.90;99.90;;;-5.79;100.00;101504.28;4966805;28;19965;-79
2021/12/22 04:15:03;;;;;;;;;;;-4.90;99.90;;;-5.76;100.00;101511.28;4967566;28;19942;-79
2021/12/22 04:17:36;;;;;;;;;;;-4.80;99.90;;;-5.68;100.00;101527.13;4952226;29;19931;-79
2021/12/22 04:20:03;;;;;;;;;;;-4.70;99.90;;;-5.67;100.00;101526.31;4979506;28;20008;-79
2021/12/22 04:22:30;;;;;;;;;;;-4.70;99.90;;;-5.73;100.00;101525.13;4970120;28;19937;-79
2021/12/22 04:24:57;;;;;;;;;;;-2.60;99.90;;;-5.66;100.00;101530.66;4969169;28;19931;-77
2021/12/22 04:27:24;;;;;;;;;;;-4.70;99.90;;;-5.72;100.00;101526.91;4969493;28;19930;-77
2021/12/22 04:29:51;;;;;;;;;;;-4.50;99.90;;;-5.76;100.00;101519.81;4968676;28;19930;-77
2021/12/22 04:32:18;;;;;;;;;;;-4.70;99.90;;;-5.76;100.00;101524.09;4969184;28;19949;-77
2021/12/22 04:34:45;;;;;;;;;;;-4.80;99.90;;;-5.86;100.00;101526.06;4969612;28;19936;-77
2021/12/22 04:37:11;;;;;;;;;;;-4.60;99.90;;;-6.10;100.00;101525.47;4953178;28;19926;-77
2021/12/22 04:39:38;;;;;;;;;;;-4.70;99.90;;;-6.15;100.00;101525.19;4968726;28;19936;-77
2021/12/22 04:42:06;;;;;;;;;;;-4.90;99.90;;;-6.25;100.00;101530.50;4968310;28;19941;-77
2021/12/22 04:44:33;;;;;;;;;;;-4.90;99.90;;;-6.29;100.00;101529.44;4968007;28;19965;-77
2021/12/22 04:47:00;;;;;;;;;;;-5.20;99.90;;;-6.35;100.00;101535.84;4968560;28;20378;-77
2021/12/22 04:49:27;;;;;;;;;;;-5.00;99.90;;;-6.51;100.00;101542.56;4952510;28;19930;-77
2021/12/22 04:51:55;;;;;;;;;;;-5.50;99.90;;;-6.53;100.00;101533.00;4967825;28;19992;-77
2021/12/22 04:56:56;;;;;;;;;;;-5.00;99.90;;;-6.68;100.00;101535.47;4968904;28;19938;-76
2021/12/22 04:59:23;;;;;;;;;;;-5.10;99.90;;;-6.67;100.00;101538.09;4968646;28;19930;-77
2021/12/22 05:01:51;;;;;;;;;;;-5.00;99.90;;;-6.58;100.00;101525.00;4967592;28;19930;-77
2021/12/22 05:04:19;;;;;;;;;;;;;;;-6.59;100.00;101536.94;4969137;28;19937;-78
2021/12/22 05:06:47;;;;;;;;;;;-5.40;99.90;;;-6.57;100.00;101535.38;4970108;28;20300;-79
2021/12/22 05:09:14;;;;;;;;;;;-5.70;99.90;;;-6.52;100.00;101529.66;4969105;28;19937;-77
2021/12/22 05:11:41;;;;;;;;;;;;;;;-6.63;100.00;101529.88;4968875;28;19927;-77
2021/12/22 05:14:09;;;;;;;;;;;-5.40;99.90;;;-6.77;100.00;101528.94;4983213;28;19934;-77
2021/12/22 05:16:44;;;;;;;;;;;-4.80;99.90;;;-6.75;100.00;101537.59;4968894;28;19930;-77
2021/12/22 05:19:14;;;;;;;;;;;;;;;-6.85;100.00;101536.13;4984705;28;19943;-77
2021/12/22 05:21:43;;;;;;;;;;;-5.60;99.90;;;-6.69;100.00;101526.88;4970086;28;20331;-77
2021/12/22 05:24:11;;;;;;;;;;;-5.70;99.90;;;-6.62;100.00;101523.94;4968385;28;19930;-77
2021/12/22 05:26:38;;;;;;;;;;;-5.80;99.90;;;-6.66;100.00;101519.41;4968741;28;19933;-77
2021/12/22 05:29:05;;;;;;;;;;;-5.90;99.90;;;-6.68;100.00;101520.97;4968890;28;19926;-77
2021/12/22 05:31:32;;;;;;;;;;;;;;;-6.76;100.00;101523.03;4968384;28;19926;-76
2021/12/22 05:33:59;;;;;;;;;;;-5.80;99.90;;;-6.74;100.00;101511.22;4984665;28;20004;-77
2021/12/22 05:36:26;;;;;;;;;;;;;;;-6.67;100.00;101519.31;4968415;28;19926;-76
2021/12/22 05:38:53;;;;;;;;;;;-5.70;99.90;;;-6.79;100.00;101517.72;4985107;28;19926;-77
2021/12/22 05:41:20;;;;;;;;;;;-5.50;99.90;;;-6.92;100.00;101517.72;4970541;28;20028;-76
2021/12/22 05:43:47;;;;;;;;;;;-5.60;99.90;;;-6.92;100.00;101517.72;4972174;28;19930;-76
2021/12/22 05:46:15;;;;;;;;;;;-5.90;99.90;;;-7.02;100.00;101517.13;4972108;28;20365;-77
2021/12/22 05:48:43;;;;;;;;;;;;;;;-7.07;100.00;101517.59;4972359;28;19961;-76
2021/12/22 05:51:11;;;;;;;;;;;-5.90;99.90;;;-6.90;100.00;101517.03;4959939;28;19930;-77
2021/12/22 05:53:37;;;;;;;;;;;-5.00;99.90;;;-6.95;100.00;101512.41;4965192;28;20311;-77
2021/12/22 05:56:05;;;;;;;;;;;;;;;-7.10;100.00;101508.03;4989109;28;19937;-76
2021/12/22 05:58:32;;;;;;;;;;;-5.40;99.90;;;-7.21;100.00;101515.00;4974613;28;19926;-76
2021/12/22 06:00:59;;;;;;;;;;;;;;;-6.92;100.00;101507.47;4987583;28;19930;-78
2021/12/22 06:03:26;;;;;;;;;;;-5.70;99.90;;;-6.96;100.00;101516.63;4987387;28;19933;-77
2021/12/22 06:05:53;;;;;;;;;;;-5.80;99.90;;;-6.95;100.00;101514.97;4986897;28;20443;-76
2021/12/22 06:08:20;;;;;;;;;;;-5.80;99.90;;;-6.99;100.00;101511.28;4987407;28;19934;-77
2021/12/22 06:10:47;;;;;;;;;;;;;;;-6.95;100.00;101509.84;4987625;28;20666;-76
2021/12/22 06:13:14;;;;;;;;;;;-5.70;99.90;;;-7.02;100.00;101505.97;4972446;28;19930;-76
2021/12/22 06:15:41;;;;;;;;;;;;;;;-6.89;100.00;101525.56;4987719;28;19933;-76
2021/12/22 06:18:09;;;;;;;;;;;;;;;-6.91;100.00;101532.28;4955740;28;20463;-76
2021/12/22 06:20:36;;;;;;;;;;;;;;;-6.85;100.00;101537.81;4971575;28;19941;-76
2021/12/22 06:23:03;;;;;;;;;;;-5.70;99.90;;;-6.84;100.00;101540.47;4955219;28;19930;-76
2021/12/22 06:25:35;;;;;;;;;;;-5.50;99.90;;;-6.79;100.00;101544.97;4986531;28;20463;-77
2021/12/22 06:28:02;;;;;;;;;;;-5.80;99.90;;;-6.79;100.00;101545.88;4953390;28;19930;-76
2021/12/22 06:30:29;;;;;;;;;;;-5.60;99.90;;;-6.74;100.00;101541.06;4953191;28;19937;-76
2021/12/22 06:32:56;;;;;;;;;;;-5.50;99.90;;;-6.87;100.00;101537.69;4971309;28;19926;-76
2021/12/22 06:35:23;;;;;;;;;;;-5.50;99.90;;;-7.03;100.00;101538.34;4987571;28;20017;-76
2021/12/22 06:37:52;;;;;;;;;;;-5.70;99.90;;;-7.00;100.00;101542.78;4955410;28;20346;-76
2021/12/22 06:40:19;;;;;;;;;;;;;;;-6.97;100.00;101540.44;4987179;28;19934;-76
2021/12/22 06:42:47;;;;;;;;;;;-5.90;99.90;;;-6.97;100.00;101545.53;4954686;28;20291;-77
2021/12/22 06:45:14;;;;;;;;;;;;;;;-6.96;100.00;101542.19;4987360;28;19934;-75
2021/12/22 06:47:42;;;;;;;;;;;-5.90;99.90;;;-6.96;100.00;101542.19;4972764;28;20016;-76
2021/12/22 06:50:09;;;;;;;;;;;-6.00;99.90;;;-6.93;100.00;101557.78;4987106;28;19930;-76
2021/12/22 06:52:36;;;;;;;;;;;-5.80;99.90;;;-6.96;100.00;101542.19;4985553;28;19926;-76
2021/12/22 06:55:04;;;;;;;;;;;-5.20;99.90;;;-7.04;100.00;101554.50;4987008;28;20412;-76
2021/12/22 06:57:32;;;;;;;;;;;-6.20;99.90;;;-6.95;100.00;101555.91;4986857;28;19937;-76
2021/12/22 07:00:02;;;;;;;;;;;-5.60;99.90;;;-7.00;100.00;101559.03;4970487;28;19941;-76
2021/12/22 07:02:31;;;;;;;;;;;-6.00;99.90;;;-6.98;100.00;101565.16;4986226;28;20390;-76
2021/12/22 07:04:58;;;;;;;;;;;-5.80;99.90;;;-6.98;100.00;101567.72;4970508;28;19937;-76
2021/12/22 07:07:25;;;;;;;;;;;-5.90;99.90;;;-7.00;100.00;101571.84;4971911;28;20413;-76
2021/12/22 07:09:52;;;;;;;;;;;-5.70;99.90;;;-7.03;100.00;101569.06;4986909;28;20395;-76
2021/12/22 07:12:19;;;;;;;;;;;-6.00;99.90;;;-7.06;100.00;101576.53;4971471;28;19962;-75
2021/12/22 07:14:46;;;;;;;;;;;-5.90;99.90;;;-7.17;100.00;101564.72;4986621;28;20025;-77
2021/12/22 07:17:13;;;;;;;;;;;-5.90;99.90;;;-7.12;100.00;101576.13;4986701;28;19926;-76
2021/12/22 07:19:40;;;;;;;;;;;-6.10;99.90;;;-7.07;100.00;101574.75;4972165;28;20768;-76
2021/12/22 07:22:07;;;;;;;;;;;;;;;-7.15;100.00;101576.78;4971649;28;19926;-76
2021/12/22 07:24:34;;;;;;;;;;;-5.70;99.90;;;-7.23;100.00;101577.97;4986440;28;19930;-76
2021/12/22 07:27:02;;;;;;;;;;;-6.00;99.90;;;-7.08;100.00;101582.34;4986309;28;19932;-76
2021/12/22 07:29:29;;;;;;;;;;;-6.10;99.90;;;-7.09;100.00;101578.03;4986465;28;20029;-76
2021/12/22 07:31:56;;;;;;;;;;;-5.90;99.90;;;-7.05;100.00;101580.00;4985676;28;20351;-76
2021/12/22 07:34:46;;;;;;;;;;;-5.80;99.90;;;-7.06;100.00;101586.75;4953754;28;19926;-76
2021/12/22 07:37:34;;;;;;;;;;;-6.10;99.90;;;-7.03;100.00;101591.22;4985465;28;19932;-76
2021/12/22 07:40:00;;;;;;;;;;;-5.80;99.90;;;-7.08;100.00;101583.22;4986221;28;20025;-76
2021/12/22 07:42:27;;;;;;;;;;;-5.70;99.90;;;-7.07;100.00;101584.13;4983703;28;20016;-76
2021/12/22 07:44:54;;;;;;;;;;;-5.70;99.90;;;-6.90;100.00;101580.13;4986079;28;19957;-76
2021/12/22 07:47:21;;;;;;;;;;;-5.80;99.90;;;-6.90;100.00;101578.47;4971597;28;19926;-76
2021/12/22 07:49:50;;;;;;;;;;;-5.80;99.90;;;-6.78;100.00;101583.50;4986246;28;19927;-76
2021/12/22 07:52:17;;;;;;;;;;;-6.00;99.90;;;-6.68;100.00;101579.84;4969700;28;20467;-76
2021/12/22 07:54:44;;;;;;;;;;;-5.60;99.90;;;-6.68;100.00;101576.44;4969814;28;19930;-76
2021/12/22 07:57:11;;;;;;;;;;;-5.80;99.90;;;-6.65;100.00;101580.06;4985693;28;20399;-76
2021/12/22 07:59:38;;;;;;;;;;;-5.50;99.90;;;-6.52;100.00;101575.75;4969704;28;19930;-76
2021/12/22 08:02:05;;;;;;;;;;;-5.80;99.90;;;-6.45;100.00;101580.50;4970798;28;19926;-76
2021/12/22 08:04:36;;;;;;;;;;;-5.50;99.90;;;-6.37;100.00;101578.41;4949866;28;19930;-76
2021/12/22 08:07:03;;;;;;;;;;;-2.70;99.90;;;-6.23;100.00;101574.16;4952907;28;19961;-77
2021/12/22 08:09:30;;;;;;;;;;;-5.30;99.90;;;-6.15;100.00;101570.44;4970452;28;19937;-77
2021/12/22 08:12:05;;;;;;;;;;;-5.30;99.90;;;-6.06;100.00;101578.69;4952858;28;19984;-76
2021/12/22 08:14:39;;;;;;;;;;;-5.10;99.90;;;-6.00;100.00;101576.50;4970266;28;19949;-75
2021/12/22 08:17:08;;;;;;;;;;;-5.20;99.90;;;-5.93;100.00;101571.75;4968766;28;19934;-76
2021/12/22 08:19:35;;;;;;;;;;;-4.20;99.90;;;-5.90;100.00;101559.09;4984975;28;19930;-77
2021/12/22 08:22:03;;;;;;;;;;;-5.00;99.90;;;-5.76;100.00;101567.69;4970967;28;19977;-77
2021/12/22 08:24:29;;;;;;;;;;;-4.90;99.90;;;-5.57;100.00;101569.66;4955299;28;20315;-78
2021/12/22 08:26:57;;;;;;;;;;;-4.80;99.90;;;-5.32;100.00;101571.16;4972265;28;20037;-77
2021/12/22 08:29:24;;;;;;;;;;;-2.60;99.90;;;-5.24;100.00;101572.50;4965391;28;19926;-77
2021/12/22 08:31:51;;;;;;;;;;;-4.30;99.90;;;-5.16;100.00;101561.03;4967182;28;20300;-76
2021/12/22 08:34:24;;;;;;;;;;;-3.50;99.90;;;-5.14;100.00;101562.00;4973476;28;19926;-75
2021/12/22 08:39:37;;;;;;;;;;;-4.50;99.90;;;-4.98;100.00;101568.03;4970184;28;20009;-77
2021/12/22 08:42:04;;;;;;;;;;;-4.00;99.90;;;-4.93;100.00;101565.75;4937384;28;19933;-76
2021/12/22 08:44:33;;;;;;;;;;;-3.90;99.90;;;-4.85;100.00;101565.38;4968190;28;19925;-77
2021/12/22 08:47:00;;;;;;;;;;;-4.00;99.90;;;-4.82;100.00;101558.66;4952570;28;20542;-76
2021/12/22 08:49:27;;;;;;;;;;;-4.00;99.90;;;-4.72;100.00;101569.53;4968546;28;20028;-77
2021/12/22 08:51:54;;;;;;;;;;;-4.00;99.90;;;-4.65;100.00;101563.06;4970310;28;19948;-77
2021/12/22 08:54:21;;;;;;;;;;;-3.80;99.90;;;-4.61;100.00;101554.75;4968656;28;20394;-76
2021/12/22 08:56:48;;;;;;;;;;;-2.70;99.90;;;-4.54;100.00;101567.94;4984807;28;19969;-76
2021/12/22 08:59:16;;;;;;;;;;;-1.60;99.90;;;-4.51;100.00;101560.41;4969537;28;20405;-76
2021/12/22 09:01:43;;;;;;;;;;;-3.60;99.90;;;-4.45;100.00;101556.50;4984323;28;19930;-77
2021/12/22 09:04:11;;;;;;;;;;;-3.70;99.90;;;-4.39;100.00;101558.53;4967969;28;19930;-75
2021/12/22 09:06:38;;;;;;;;;;;-3.60;99.90;;;-4.27;100.00;101571.19;4984983;28;20462;-77
2021/12/22 09:09:06;;;;;;;;;;;-3.50;99.90;;;-4.25;100.00;101563.56;4985252;28;19930;-76
2021/12/22 09:11:35;;;;;;;;;;;-3.50;99.90;;;-4.17;100.00;101564.88;4984350;28;19930;-76
2021/12/22 09:14:04;;;;;;;;;;;-2.30;99.90;;;-4.08;100.00;101564.50;4984995;28;19932;-77
2021/12/22 09:16:36;;;;;;;;;;;-0.10;99.90;;;-4.02;100.00;101564.84;4969630;28;19926;-75
2021/12/22 09:19:05;;;;;;;;;;;-3.20;99.90;;;-3.93;100.00;101561.88;4968942;28;19930;-77
2021/12/22 09:21:33;;;;;;;;;;;-3.10;99.90;;;-3.89;100.00;101559.56;4984696;28;19936;-75
2021/12/22 09:24:01;;;;;;;;;;;-3.20;99.90;;;-3.82;100.00;101554.75;4984709;28;20037;-77
2021/12/22 09:26:28;;;;;;;;;;;-3.10;99.90;;;-3.68;100.00;101555.47;4969760;28;19970;-78
2021/12/22 09:28:55;;;;;;;;;;;-3.00;99.90;;;-3.61;100.00;101550.75;4954514;28;20694;-78
2021/12/22 09:31:23;;;;;;;;;;;-3.10;99.90;;;-3.51;100.00;101552.13;4971586;28;19952;-78
2021/12/22 09:33:50;;;;;;;;;;;-2.40;99.90;;;-3.35;100.00;101552.94;4969624;28;19930;-77
2021/12/22 09:36:17;;;;;;;;;;;-2.50;99.90;;;-3.30;100.00;101547.19;4969650;28;19930;-77
2021/12/22 09:38:44;;;;;;;;;;;-2.40;99.90;;;-3.19;100.00;101550.34;4953967;28;20467;-77
2021/12/22 09:41:12;;;;;;;;;;;-2.40;99.90;;;-3.08;100.00;101545.75;4969603;28;20346;-77
2021/12/22 09:43:41;;;;;;;;;;;-2.50;99.90;;;-3.00;100.00;101534.13;4986952;28;19934;-78
2021/12/22 09:46:11;;;;;;;;;;;-2.30;99.90;;;-2.86;100.00;101534.81;4971329;28;20503;-79
2021/12/22 09:53:43;;;;;;;;;;;-2.00;99.90;;;-2.42;100.00;101524.00;4970601;28;20524;-78
2021/12/22 09:56:12;;;;;;;;;;;-1.50;99.90;;;-2.34;100.00;101514.06;4966951;28;20045;-77
2021/12/22 09:58:43;;;;;;;;;;;-1.80;99.90;;;-2.28;100.00;101509.22;4973339;28;20629;-78
2021/12/22 10:01:11;;;;;;;;;;;-1.50;99.90;;;-2.24;100.00;101510.25;4972363;28;19976;-78
2021/12/22 10:03:38;;;;;;;;;;;-1.70;99.90;;;-2.14;100.00;101520.16;4971883;28;19981;-78
2021/12/22 10:06:06;;;;;;;;;;;-1.50;99.90;;;-2.09;100.00;101520.38;4970497;28;20024;-77
2021/12/22 10:08:35;;;;;;;;;;;1.20;99.90;;;-2.01;100.00;101516.47;4969471;28;19988;-77
2021/12/22 10:11:04;;;;;;;;;;;-1.50;99.90;;;-1.95;100.00;101516.75;4968127;28;19937;-75
2021/12/22 10:13:31;;;;;;;;;;;0.70;99.90;;;-1.93;100.00;101507.38;4967849;28;19926;-75
2021/12/22 10:15:59;;;;;;;;;;;-1.10;99.90;;;-1.87;100.00;101510.25;4968060;28;20013;-76
2021/12/22 10:18:28;;;;;;;;;;;-1.20;99.90;;;-1.78;100.00;101506.31;4953490;28;19949;-77
2021/12/22 10:21:28;;;;;;;;;;;-1.00;99.90;;;-1.69;100.00;101496.41;4969653;28;19930;-76
2021/12/22 10:23:55;;;;;;;;;;;-1.00;99.90;;;-1.61;100.00;101492.44;4940591;28;19933;-76
2021/12/22 10:26:27;;;;;;;;;;;0.20;99.90;;;-1.54;100.00;101491.00;4988406;28;19930;-75
2021/12/22 10:28:59;;;;;;;;;;;-1.00;99.90;;;-1.51;100.00;101485.13;4972757;28;19930;-75
2021/12/22 10:31:36;;;;;;;;;;;-1.20;99.90;;;-1.41;100.00;101484.69;4970855;28;20027;-75
2021/12/22 10:34:15;;;;;;;;;;;0.40;99.90;;;-1.39;100.00;101483.06;4970705;28;19930;-76
2021/12/22 10:36:54;;;;;;;;;;;-0.70;99.90;;;-1.30;100.00;101482.56;4970816;28;19929;-75
2021/12/22 10:39:29;;;;;;;;;;;1.50;99.90;;;-1.21;100.00;101471.75;4986854;28;20021;-76
2021/12/22 10:42:10;;;;;;;;;;;-0.70;99.90;;;-1.12;100.00;101474.69;4952362;28;20424;-76
2021/12/22 10:44:40;;;;;;;;;;;-0.60;99.90;;;-1.04;100.00;101463.00;4952240;29;20006;-75
2021/12/22 10:47:23;;;;;;;;;;;-0.70;99.90;;;-0.94;100.00;101460.78;4978791;28;19926;-75
2021/12/22 10:50:00;;;;;;;;;;;-0.30;99.90;;;-0.88;100.00;101459.31;4985952;28;19941;-77
2021/12/22 10:52:27;;;;;;;;;;;-0.40;99.90;;;-0.78;100.00;101454.53;4970131;28;19936;-77
2021/12/22 10:55:09;;;;;;;;;;;-0.20;99.90;;;-0.72;100.00;101439.25;4970504;28;20401;-77
2021/12/22 10:57:45;;;;;;;;;;;-0.20;99.90;;;-0.64;100.00;101440.47;4955712;28;20387;-76
2021/12/22 11:00:18;;;;;;;;;;;-0.10;99.90;;;-0.53;100.00;101440.00;4970594;28;20028;-76
2021/12/22 11:03:00;;;;;;;;;;;-0.10;99.90;;;-0.43;100.00;101440.41;4971375;28;19969;-75
2021/12/22 11:05:29;;;;;;;;;;;2.10;99.90;;;-0.38;100.00;101442.28;4957002;28;19930;-76
2021/12/22 11:07:58;;;;;;;;;;;0.00;99.90;;;-0.25;100.00;101436.75;4987062;28;20415;-77
2021/12/22 11:10:29;;;;;;;;;;;0.00;99.90;;;-0.17;100.00;101435.31;4970974;28;19930;-77
2021/12/22 11:13:05;;;;;;;;;;;0.30;99.90;;;-0.05;100.00;101437.50;4954744;28;19930;-75
2021/12/22 11:15:44;;;;;;;;;;;-0.10;99.90;;;0.02;100.00;101433.44;4987516;28;19961;-77
2021/12/22 11:18:27;;;;;;;;;;;0.50;99.90;;;0.16;100.00;101413.22;4972919;28;20628;-76
2021/12/22 11:21:09;;;;;;;;;;;0.70;99.90;;;0.26;100.00;101417.91;4966715;28;19942;-76
2021/12/22 11:23:36;;;;;;;;;;;0.60;99.90;;;0.35;100.00;101417.34;4976089;28;19930;-76
2021/12/22 11:26:04;;;;;;;;;;;0.80;99.90;;;0.44;100.00;101416.78;4956226;29;19926;-77
2021/12/22 11:28:33;;;;;;;;;;;2.30;99.90;;;0.56;100.00;101412.03;4969814;28;19934;-77
2021/12/22 11:31:02;;;;;;;;;;;1.20;99.90;;;0.72;100.00;101409.06;4971029;28;20545;-76
2021/12/22 11:33:30;;;;;;;;;;;2.80;99.90;;;0.76;100.00;101401.44;4970578;28;20032;-74
2021/12/22 11:35:58;;;;;;;;;;;1.40;99.90;;;0.90;100.00;101395.84;4955019;28;19934;-77
2021/12/22 11:38:28;;;;;;;;;;;1.70;99.90;;;0.97;100.00;101390.00;4970430;28;20369;-76